Terminal Aerodrome Forecast
Issued by NWS

Home | Current Version | Previous Version | Text Only | Print | Product List | Glossary On
Versions: 1 2 3 4 5 6 7 8 9 10 11 12 13 14
368
FTUS45 KABQ 292330
TAFLVS
TAF
KLVS 292330Z 3000/3024 16016KT P6SM VCSH BKN090
     FM300200 20009KT P6SM SCT030 SCT200
     FM300600 12008KT P6SM SKC
     FM301100 22007KT P6SM SKC
     FM302100 21012G20KT P6SM VCTS SCT080CB=

USA.gov is the U.S. government's official web portal to all federal, state and local government web resources and services.